Time;durP1;ratioP1;P1;durP2;ratioP2;P2;SDS_P1;SDS_P2;PMS_P1;PMS_P2;Temp;Humidity;BMP_temperature;BMP_pressure;BME280_temperature;BME280_humidity;BME280_pressure;Samples;Min_cycle;Max_cycle;Signal;HPM_P1;HPM_P2
2022/08/13 00:00:44;;;;;;;3.25;1.80;;;;;;;-140.72;0.00;52082.44;4990489;28;20375;-68
2022/08/13 00:03:14;;;;;;;2.83;2.15;;;;;;;-140.72;0.00;52080.41;4994885;28;20030;-68
2022/08/13 00:05:40;;;;;;;2.50;1.70;;;;;;;-140.72;0.00;52049.97;4994521;28;20038;-68
2022/08/13 00:08:05;;;;;;;2.42;1.88;;;;;;;-140.72;0.00;52035.78;4993352;28;20026;-68
2022/08/13 00:10:32;;;;;;;2.83;1.83;;;;;;;-140.72;0.00;52076.34;4998574;28;20034;-67
2022/08/13 00:12:57;;;;;;;3.95;2.10;;;;;;;-140.72;0.00;52066.22;4994545;28;20030;-67
2022/08/13 00:15:33;;;;;;;2.70;1.80;;;;;;;-140.72;0.00;52082.44;4993891;28;20040;-68
2022/08/13 00:18:02;;;;;;;2.75;2.10;;;;;;;-140.72;0.00;52015.50;4988412;28;20036;-68
2022/08/13 00:20:41;;;;;;;1.77;1.37;;;;;;;-140.72;0.00;52082.44;4993029;28;20446;-67
2022/08/13 00:23:10;;;;;;;2.42;1.80;;;;;;;-140.72;0.00;52033.75;4995480;28;20085;-67
2022/08/13 00:25:35;;;;;;;2.83;1.83;;;;;;;-140.72;0.00;52064.19;4994172;28;20026;-67
2022/08/13 00:28:02;;;;;;;2.22;1.52;;;;;;;-140.72;0.00;52086.50;4995646;28;20386;-67
2022/08/13 00:30:31;;;;;;;3.55;2.10;;;;;;;-140.72;0.00;52096.66;4995820;28;20030;-67
2022/08/13 00:32:59;;;;;;;3.22;2.38;;;;;;;-140.72;0.00;52054.03;4997046;28;20034;-67
2022/08/13 00:35:25;;;;;;;2.10;1.60;;;;;;;-140.72;0.00;52072.31;4994051;28;20054;-68
2022/08/13 00:37:50;;;;;;;2.63;1.83;;;;;;;-140.72;0.00;52070.28;4991124;28;20490;-67
2022/08/13 00:40:17;;;;;;;4.57;2.05;;;;;;;-140.72;0.00;52108.81;4998559;28;20037;-67
2022/08/13 00:42:43;;;;;;;3.55;2.00;;;;;;;-140.72;0.00;52082.44;4996671;28;20042;-67
2022/08/13 00:45:09;;;;;;;4.40;1.80;;;;;;;-140.72;0.00;52070.28;4993925;28;20543;-67
2022/08/13 00:50:19;;;;;;;2.70;1.80;;;;;;;-140.72;0.00;52056.06;4992241;28;20073;-67
2022/08/13 00:52:45;;;;;;;1.58;1.20;;;;;;;-140.72;0.00;52086.50;4995086;28;20704;-69
2022/08/13 00:55:17;;;;;;;2.28;1.58;;;;;;;-140.72;0.00;52062.16;4992696;28;20033;-68
2022/08/13 00:57:44;;;;;;;2.05;1.35;;;;;;;-140.72;0.00;52070.28;4994355;28;20041;-68
2022/08/13 01:00:15;;;;;;;2.25;1.60;;;;;;;-140.72;0.00;52102.75;4992308;28;20417;-67
2022/08/13 01:02:43;;;;;;;2.30;1.40;;;;;;;-140.72;0.00;52074.34;4994852;28;20019;-67
2022/08/13 01:05:09;;;;;;;2.92;1.63;;;;;;;-140.72;0.00;52068.25;4993246;28;20026;-68
2022/08/13 01:07:36;;;;;;;4.43;1.60;;;;;;;-140.72;0.00;52068.25;4994023;28;20053;-67
2022/08/13 01:10:03;;;;;;;3.13;1.70;;;;;;;-140.72;0.00;52045.94;4993547;28;20026;-68
2022/08/13 01:12:29;;;;;;;3.22;1.50;;;;;;;-140.72;0.00;52076.34;4993340;28;20031;-67
2022/08/13 01:14:56;;;;;;;2.67;1.73;;;;;;;-140.72;0.00;52017.53;4993802;28;20066;-67
2022/08/13 01:17:24;;;;;;;3.00;1.85;;;;;;;-140.72;0.00;52098.69;4992487;28;20467;-67
2022/08/13 01:19:52;;;;;;;4.40;2.03;;;;;;;-140.72;0.00;52056.06;4992967;28;20035;-68
2022/08/13 01:22:19;;;;;;;1.52;1.20;;;;;;;-140.72;0.00;52066.22;4993057;28;20030;-66
2022/08/13 01:24:44;;;;;;;2.78;1.40;;;;;;;-140.72;0.00;52058.09;4993365;28;20109;-66
2022/08/13 01:27:10;;;;;;;4.22;1.45;;;;;;;-140.72;0.00;52094.63;4995850;28;20101;-67
2022/08/13 01:29:36;;;;;;;2.13;1.58;;;;;;;-140.72;0.00;52070.28;4997078;28;20482;-67
2022/08/13 01:32:05;;;;;;;2.65;1.17;;;;;;;-140.72;0.00;52092.59;4997078;28;20038;-67
2022/08/13 01:34:32;;;;;;;2.35;1.33;;;;;;;-140.72;0.00;52064.19;5000374;28;20030;-67
2022/08/13 01:36:57;;;;;;;1.92;1.33;;;;;;;-140.72;0.00;52074.34;4998838;28;20038;-66
2022/08/13 01:39:24;;;;;;;1.73;1.33;;;;;;;-140.72;0.00;52064.19;4998215;28;20030;-67
2022/08/13 01:41:49;;;;;;;1.80;1.10;;;;;;;-140.72;0.00;52088.53;4998641;28;20034;-67
2022/08/13 01:44:16;;;;;;;3.55;1.65;;;;;;;-140.72;0.00;52098.69;5012005;28;20031;-67
2022/08/13 01:52:12;;;;;;;2.78;1.85;;;;;;;-140.72;0.00;52068.25;4997528;28;20080;-67
2022/08/13 01:54:38;;;;;;;3.40;1.27;;;;;;;-140.72;0.00;52090.56;4996859;28;20030;-67
2022/08/13 01:57:06;;;;;;;3.42;1.50;;;;;;;-140.72;0.00;52054.03;4997117;28;20496;-67
2022/08/13 01:59:36;;;;;;;2.45;1.45;;;;;;;-140.72;0.00;52110.84;4995530;28;20065;-67
2022/08/13 02:02:10;;;;;;;2.42;1.48;;;;;;;-140.72;0.00;52106.78;4995524;28;20030;-67
2022/08/13 02:04:36;;;;;;;3.88;1.45;;;;;;;-140.72;0.00;52070.28;4997882;28;20546;-67
2022/08/13 02:07:01;;;;;;;1.83;1.40;;;;;;;-140.72;0.00;52078.38;4996259;28;20069;-67
2022/08/13 02:09:34;;;;;;;2.10;1.42;;;;;;;-140.72;0.00;52094.63;4996226;28;20026;-67
2022/08/13 02:11:59;;;;;;;6.05;1.60;;;;;;;-140.72;0.00;52102.75;4995364;28;20574;-67
2022/08/13 02:14:27;;;;;;;2.72;1.45;;;;;;;-140.72;0.00;52035.78;4996189;28;20266;-66
2022/08/13 02:16:53;;;;;;;3.35;1.83;;;;;;;-140.72;0.00;52131.16;4992504;28;20257;-67
2022/08/13 02:19:18;;;;;;;2.03;1.17;;;;;;;-140.72;0.00;52076.34;4996885;28;20029;-67
2022/08/13 02:21:44;;;;;;;2.47;1.75;;;;;;;-140.72;0.00;52078.38;4996141;28;20030;-67
2022/08/13 02:24:13;;;;;;;4.72;1.15;;;;;;;-140.72;0.00;52096.66;5002612;28;20482;-67
2022/08/13 02:26:42;;;;;;;2.78;1.60;;;;;;;-140.72;0.00;52114.91;4998231;28;20079;-67
2022/08/13 02:29:09;;;;;;;2.55;1.60;;;;;;;-140.72;0.00;52100.72;4994683;28;20038;-67
2022/08/13 02:31:35;;;;;;;2.08;1.48;;;;;;;-140.72;0.00;52127.09;4983322;28;20023;-67
2022/08/13 02:34:01;;;;;;;3.63;1.77;;;;;;;-140.72;0.00;52131.16;5013767;23;20050;-65
2022/08/13 02:36:27;;;;;;;2.47;1.40;;;;;;;-140.72;0.00;52131.16;5011680;28;20026;-68
2022/08/13 02:39:00;;;;;;;2.67;1.45;;;;;;;-140.72;0.00;52100.72;5012788;28;20394;-65
2022/08/13 02:41:42;;;;;;;2.33;1.52;;;;;;;-140.72;0.00;52080.41;5013930;28;20152;-65
2022/08/13 02:44:13;;;;;;;2.20;1.67;;;;;;;-140.72;0.00;52143.31;5014061;28;20064;-67
2022/08/13 02:46:40;;;;;;;2.45;1.50;;;;;;;-140.72;0.00;52114.91;5028344;28;20025;-65
2022/08/13 02:49:06;;;;;;;2.58;1.52;;;;;;;-140.72;0.00;52104.75;5014160;28;20022;-67
2022/08/13 02:51:32;;;;;;;3.03;1.70;;;;;;;-140.72;0.00;52112.88;5010990;28;20033;-66
2022/08/13 02:54:00;;;;;;;3.40;2.08;;;;;;;-140.72;0.00;52149.41;5028690;28;20044;-65
2022/08/13 02:56:26;;;;;;;2.42;1.58;;;;;;;-140.72;0.00;52125.06;5013882;28;20061;-65
2022/08/13 02:58:53;;;;;;;2.92;1.95;;;;;;;-140.72;0.00;52139.25;5014524;28;20030;-66
2022/08/13 03:01:19;;;;;;;1.70;1.08;;;;;;;-140.72;0.00;52139.25;5013626;28;20057;-66
2022/08/13 03:03:44;;;;;;;1.80;1.30;;;;;;;-140.72;0.00;52106.78;5012846;28;20030;-66
2022/08/13 03:06:10;;;;;;;3.67;1.50;;;;;;;-140.72;0.00;52135.19;5014675;28;20018;-67
2022/08/13 03:08:35;;;;;;;2.85;1.92;;;;;;;-140.72;0.00;52129.13;5014429;28;20053;-65
2022/08/13 03:11:01;;;;;;;2.38;1.73;;;;;;;-140.72;0.00;52131.16;5014288;28;20524;-67
2022/08/13 03:13:32;;;;;;;3.05;1.70;;;;;;;-140.72;0.00;52102.75;5010440;28;20092;-67
2022/08/13 03:15:58;;;;;;;3.05;2.00;;;;;;;-140.72;0.00;52118.97;5012824;28;20032;-65
2022/08/13 03:18:23;;;;;;;3.58;1.98;;;;;;;-140.72;0.00;52127.09;5014344;28;20033;-66
2022/08/13 03:20:50;;;;;;;2.75;1.90;;;;;;;-140.72;0.00;52123.03;5014146;28;20099;-66
2022/08/13 03:23:16;;;;;;;2.95;1.85;;;;;;;-140.72;0.00;52114.91;5012046;28;20030;-66
2022/08/13 03:25:42;;;;;;;2.60;1.73;;;;;;;-140.72;0.00;52096.66;5014354;28;20492;-65
2022/08/13 03:28:08;;;;;;;3.00;1.70;;;;;;;-140.72;0.00;52143.31;5014251;28;20029;-66
2022/08/13 03:30:34;;;;;;;4.95;2.17;;;;;;;-140.72;0.00;52137.22;5014338;28;20052;-65
2022/08/13 03:33:11;;;;;;;2.60;1.63;;;;;;;-140.72;0.00;52086.50;5012077;28;20080;-67
2022/08/13 03:35:37;;;;;;;2.97;1.70;;;;;;;-140.72;0.00;52165.63;5012123;28;20121;-65
2022/08/13 03:38:10;;;;;;;4.05;2.20;;;;;;;-140.72;0.00;52143.31;5012663;28;20334;-66
2022/08/13 03:43:21;;;;;;;2.97;1.50;;;;;;;-140.72;0.00;52137.22;5011750;28;20116;-65
2022/08/13 03:45:46;;;;;;;3.72;2.15;;;;;;;-140.72;0.00;52157.53;5014262;28;20101;-66
2022/08/13 03:48:14;;;;;;;2.80;1.58;;;;;;;-140.72;0.00;52145.34;5012132;28;20160;-66
2022/08/13 03:50:44;;;;;;;2.42;1.40;;;;;;;-140.72;0.00;52143.31;5013577;28;20052;-64
2022/08/13 03:53:10;;;;;;;4.63;2.17;;;;;;;-140.72;0.00;52104.75;5013010;28;20198;-67
2022/08/13 03:55:41;;;;;;;2.78;1.90;;;;;;;-140.72;0.00;52143.31;5016456;28;20553;-66
2022/08/13 03:58:07;;;;;;;2.67;1.88;;;;;;;-140.72;0.00;52133.16;5018507;28;20030;-65
2022/08/13 04:00:38;;;;;;;3.50;2.15;;;;;;;-140.72;0.00;52141.28;5017128;28;20022;-65
2022/08/13 04:03:20;;;;;;;2.95;1.90;;;;;;;-140.72;0.00;52090.56;5019651;28;20029;-67
2022/08/13 04:06:00;;;;;;;3.47;2.20;;;;;;;-140.72;0.00;52173.75;5011562;28;20050;-70
2022/08/13 04:08:26;;;;;;;;;;;;;;;-140.72;0.00;52131.16;5010495;28;20124;-70
2022/08/13 04:10:52;;;;;;;3.50;1.60;;;;;;;-140.72;0.00;52135.19;5010545;28;20377;-70
2022/08/13 04:13:17;;;;;;;2.95;2.13;;;;;;;-140.72;0.00;52151.44;5011648;28;20033;-70
2022/08/13 04:15:43;;;;;;;3.28;2.33;;;;;;;-140.72;0.00;52139.25;5010035;28;20389;-71
2022/08/13 04:18:13;;;;;;;4.70;2.38;;;;;;;-140.72;0.00;52185.94;5010650;28;20033;-71
2022/08/13 04:20:54;;;;;;;3.42;2.08;;;;;;;-140.72;0.00;52177.81;5008519;28;20484;-71
2022/08/13 04:23:20;;;;;;;3.25;2.20;;;;;;;-140.72;0.00;52127.09;5009073;28;20026;-71
2022/08/13 04:25:49;;;;;;;3.20;2.00;;;;;;;-140.72;0.00;52185.94;5009860;28;20135;-70
2022/08/13 04:28:16;;;;;;;3.22;2.08;;;;;;;-140.72;0.00;52127.09;5008247;28;20038;-73
2022/08/13 04:30:42;;;;;;;3.80;2.25;;;;;;;-140.72;0.00;52165.63;5010531;28;20149;-70
2022/08/13 04:33:12;;;;;;;2.80;1.98;;;;;;;-140.72;0.00;52139.25;5010446;28;20077;-71
2022/08/13 04:35:38;;;;;;;2.72;2.00;;;;;;;-140.72;0.00;52145.34;5010161;28;20025;-71
2022/08/13 04:38:08;;;;;;;2.75;1.83;;;;;;;-140.72;0.00;52155.50;5011648;28;20078;-71
2022/08/13 04:40:39;;;;;;;3.57;2.50;;;;;;;-140.72;0.00;52133.16;5016649;28;20108;-72
2022/08/13 04:43:06;;;;;;;2.75;1.52;;;;;;;-140.72;0.00;52155.50;5017065;28;20034;-72
2022/08/13 04:45:32;;;;;;;2.80;1.92;;;;;;;-140.72;0.00;52163.59;5006924;28;20477;-73
2022/08/13 04:48:00;;;;;;;3.58;2.05;;;;;;;-140.72;0.00;52141.28;5006904;28;20026;-69
2022/08/13 04:50:32;;;;;;;3.40;2.17;;;;;;;-140.72;0.00;52153.47;5021494;28;20018;-69
2022/08/13 04:52:59;;;;;;;2.85;2.20;;;;;;;-140.72;0.00;52151.44;5012240;28;20507;-71
2022/08/13 04:55:25;;;;;;;4.10;2.22;;;;;;;-140.72;0.00;52155.50;5009205;28;20170;-74
2022/08/13 04:57:51;;;;;;;5.18;1.98;;;;;;;-140.72;0.00;52161.56;5010952;28;20053;-73
2022/08/13 05:00:16;;;;;;;3.28;2.00;;;;;;;-140.72;0.00;52137.22;5010818;28;20572;-73
2022/08/13 05:02:43;;;;;;;2.55;1.75;;;;;;;-140.72;0.00;52151.44;5013858;28;20034;-71
2022/08/13 05:05:11;;;;;;;3.47;1.92;;;;;;;-140.72;0.00;52129.13;5006112;28;20091;-72
2022/08/13 05:07:37;;;;;;;3.05;1.88;;;;;;;-140.72;0.00;52123.03;5015828;28;20018;-71
2022/08/13 05:10:04;;;;;;;2.88;2.08;;;;;;;-140.72;0.00;52147.38;5016846;28;20037;-70
2022/08/13 05:12:36;;;;;;;2.97;1.85;;;;;;;-140.72;0.00;52153.47;5014700;28;20030;-72
2022/08/13 05:15:06;;;;;;;3.10;2.38;;;;;;;-140.72;0.00;52135.19;5016072;28;20033;-73
2022/08/13 05:17:32;;;;;;;;;;;;;;;-140.72;0.00;52127.09;5016412;28;20125;-71
2022/08/13 05:19:58;;;;;;;3.00;2.10;;;;;;;-140.72;0.00;52118.97;5014961;28;19917;-72
2022/08/13 05:22:24;;;;;;;3.58;2.28;;;;;;;-140.72;0.00;52131.16;5013163;28;20033;-71
2022/08/13 05:24:52;;;;;;;3.35;2.03;;;;;;;-140.72;0.00;52114.91;5016789;28;20049;-75
2022/08/13 05:27:19;;;;;;;4.30;2.20;;;;;;;-140.72;0.00;52143.31;5018451;28;20147;-81
2022/08/13 05:29:44;;;;;;;3.30;2.20;;;;;;;-140.72;0.00;52131.16;5017412;28;20026;-79
2022/08/13 05:32:10;;;;;;;5.15;2.40;;;;;;;-140.72;0.00;52149.41;5028441;28;20053;-77
2022/08/13 05:34:37;;;;;;;5.88;2.40;;;;;;;-140.72;0.00;52123.03;5015163;28;20096;-77
2022/08/13 05:37:03;;;;;;;3.80;2.08;;;;;;;-140.72;0.00;52147.38;5014700;28;20390;-78
2022/08/13 05:39:29;;;;;;;3.72;2.28;;;;;;;-140.72;0.00;52135.19;5014516;28;20061;-74
2022/08/13 05:41:55;;;;;;;2.75;1.80;;;;;;;-140.72;0.00;52121.00;5014018;28;20399;-77
2022/08/13 05:44:22;;;;;;;4.72;2.33;;;;;;;-140.72;0.00;52183.91;5013457;28;20137;-73
2022/08/13 05:46:50;;;;;;;2.92;2.03;;;;;;;-140.72;0.00;52123.03;5017193;28;20057;-73
2022/08/13 05:49:16;;;;;;;3.17;1.77;;;;;;;-140.72;0.00;52125.06;5021472;28;20064;-73
2022/08/13 05:51:44;;;;;;;2.83;1.58;;;;;;;-140.72;0.00;52123.03;5020533;28;20420;-74
2022/08/13 05:54:11;;;;;;;3.47;2.45;;;;;;;-140.72;0.00;52098.69;5018717;28;20034;-72
2022/08/13 05:56:37;;;;;;;2.97;1.83;;;;;;;-140.72;0.00;52129.13;5019095;28;20022;-78
2022/08/13 06:03:22;;;;;;;3.20;1.55;;;;;;;-140.72;0.00;52147.38;5018983;28;20136;-73
2022/08/13 06:04:37;;;;;;;2.78;2.22;;;;;;;-140.72;0.00;52116.94;5015166;28;20016;-76
2022/08/13 06:07:02;;;;;;;3.65;1.83;;;;;;;-140.72;0.00;52143.31;5013789;28;20339;-73
2022/08/13 06:09:29;;;;;;;4.03;2.60;;;;;;;-140.72;0.00;52086.50;5010159;28;20048;-75
2022/08/13 06:11:54;;;;;;;3.92;2.10;;;;;;;-140.72;0.00;52082.44;4993296;28;20093;-75
2022/08/13 06:14:20;;;;;;;2.92;1.92;;;;;;;-140.72;0.00;52088.53;5014171;28;20474;-74
2022/08/13 06:16:49;;;;;;;2.30;1.80;;;;;;;-140.72;0.00;52068.25;5014724;28;20030;-72
2022/08/13 06:19:14;;;;;;;4.05;2.40;;;;;;;-140.72;0.00;52118.97;5013945;28;20033;-72
2022/08/13 06:21:40;;;;;;;3.67;1.90;;;;;;;-140.72;0.00;52098.69;5012864;28;20463;-73
2022/08/13 06:24:05;;;;;;;4.60;2.03;;;;;;;-140.72;0.00;52092.59;5012665;28;20037;-77
2022/08/13 06:26:31;;;;;;;2.83;2.10;;;;;;;-140.72;0.00;52121.00;5012550;28;20347;-77
2022/08/13 06:28:58;;;;;;;3.35;2.13;;;;;;;-140.72;0.00;52076.34;5012427;28;20416;-74
2022/08/13 06:31:28;;;;;;;2.65;1.45;;;;;;;-140.72;0.00;52094.63;5012450;28;20112;-75
2022/08/13 06:33:57;;;;;;;3.53;1.92;;;;;;;-140.72;0.00;52084.47;5010865;28;20406;-74
2022/08/13 06:36:31;;;;;;;3.25;2.08;;;;;;;-140.72;0.00;52104.75;5019153;28;20366;-74
2022/08/13 06:39:02;;;;;;;4.32;1.80;;;;;;;-140.72;0.00;52086.50;5017741;28;20099;-75
2022/08/13 06:41:29;;;;;;;3.65;2.10;;;;;;;-140.72;0.00;52110.84;5018028;28;20037;-74
2022/08/13 06:43:56;;;;;;;2.53;1.50;;;;;;;-140.72;0.00;52082.44;5018220;28;20030;-72
2022/08/13 06:46:24;;;;;;;5.05;1.90;;;;;;;-140.72;0.00;52088.53;5019360;28;20068;-74
2022/08/13 06:48:50;;;;;;;3.30;1.85;;;;;;;-140.72;0.00;52094.63;5024916;28;20139;-74
2022/08/13 06:51:16;;;;;;;3.40;1.83;;;;;;;-140.72;0.00;52045.94;5017474;28;20033;-72
2022/08/13 06:53:43;;;;;;;3.90;1.80;;;;;;;-140.72;0.00;52058.09;5017324;28;20029;-72
2022/08/13 06:56:30;;;;;;;3.20;1.58;;;;;;;-140.72;0.00;52064.19;5017040;28;20077;-73
2022/08/13 06:58:58;;;;;;;2.72;1.67;;;;;;;-140.72;0.00;52019.56;5015852;28;20026;-72
2022/08/13 07:01:26;;;;;;;2.88;1.40;;;;;;;-140.72;0.00;52049.97;5014853;28;20030;-73
2022/08/13 07:03:53;;;;;;;2.72;1.27;;;;;;;-140.72;0.00;52039.84;5015544;28;20515;-74
2022/08/13 07:06:25;;;;;;;2.05;1.40;;;;;;;-140.72;0.00;52066.22;5014092;28;20053;-74
2022/08/13 07:08:54;;;;;;;3.25;1.55;;;;;;;-140.72;0.00;52027.66;5013941;28;20064;-73
2022/08/13 07:11:22;;;;;;;2.53;1.60;;;;;;;-140.72;0.00;52049.97;5012235;28;20034;-74
2022/08/13 07:13:49;;;;;;;2.47;1.33;;;;;;;-140.72;0.00;52062.16;5010935;28;20021;-73
2022/08/13 07:16:16;;;;;;;2.00;1.30;;;;;;;-140.72;0.00;52023.59;5012825;28;20033;-75
2022/08/13 07:18:46;;;;;;;3.67;1.45;;;;;;;-140.72;0.00;52045.94;5013104;28;20021;-72
2022/08/13 07:21:15;;;;;;;3.35;1.60;;;;;;;-140.72;0.00;52003.31;5006663;28;20053;-74
2022/08/13 07:23:42;;;;;;;3.05;1.48;;;;;;;-140.72;0.00;52003.31;5010215;28;20096;-73
2022/08/13 07:26:12;;;;;;;1.90;1.27;;;;;;;-140.72;0.00;52001.28;5015235;28;20437;-73
2022/08/13 07:28:38;;;;;;;2.17;1.30;;;;;;;-140.72;0.00;52054.03;5016593;28;20509;-74
2022/08/13 07:31:05;;;;;;;5.15;1.60;;;;;;;-140.72;0.00;52027.66;5014051;28;20521;-74
2022/08/13 07:33:34;;;;;;;5.75;1.58;;;;;;;-140.72;0.00;52019.56;5011364;28;20146;-74
2022/08/13 07:36:04;;;;;;;2.53;1.60;;;;;;;-140.72;0.00;51972.88;5014635;28;20057;-75
2022/08/13 07:38:31;;;;;;;;;;;;;;;-140.72;0.00;52011.44;5012802;28;20124;-73
2022/08/13 07:40:58;;;;;;;1.80;1.20;;;;;;;-140.72;0.00;52003.31;5012803;28;20008;-74
2022/08/13 07:43:24;;;;;;;3.38;1.02;;;;;;;-140.72;0.00;52033.75;5006994;28;20022;-74
2022/08/13 07:46:10;;;;;;;2.53;1.30;;;;;;;-140.72;0.00;51995.19;5004807;28;20045;-76
2022/08/13 07:48:40;;;;;;;2.58;1.42;;;;;;;-140.72;0.00;51978.97;5018312;28;20030;-76
2022/08/13 07:51:19;;;;;;;1.92;1.40;;;;;;;-140.72;0.00;51993.19;5026353;28;20022;-74
2022/08/13 07:53:48;;;;;;;2.30;1.40;;;;;;;-140.72;0.00;51976.94;5012594;28;20100;-74
2022/08/13 07:56:19;;;;;;;1.58;1.00;;;;;;;-140.72;0.00;51983.03;5019876;28;20033;-75
2022/08/13 07:58:44;;;;;;;1.45;0.90;;;;;;;-140.72;0.00;52025.63;5008309;28;20026;-73
2022/08/13 08:01:11;;;;;;;3.83;1.58;;;;;;;-140.72;0.00;51981.00;5012500;28;20121;-75
2022/08/13 08:03:45;;;;;;;2.42;1.25;;;;;;;-140.72;0.00;51956.66;5023283;28;20076;-77
2022/08/13 08:06:14;;;;;;;2.58;1.50;;;;;;;-140.72;0.00;51972.88;5015288;28;20068;-76
2022/08/13 08:08:42;;;;;;;1.98;1.00;;;;;;;-140.72;0.00;51970.84;5019163;28;20379;-78
2022/08/13 08:11:09;;;;;;;2.38;1.30;;;;;;;-140.72;0.00;51944.47;5025877;28;20029;-76
2022/08/13 08:13:35;;;;;;;2.05;1.20;;;;;;;-140.72;0.00;51972.88;5019265;28;20029;-78
2022/08/13 08:16:03;;;;;;;1.33;0.85;;;;;;;-140.72;0.00;51952.59;5031820;28;20037;-75
2022/08/13 08:18:30;;;;;;;2.17;1.20;;;;;;;-140.72;0.00;51932.31;5017999;28;20121;-76
2022/08/13 08:21:04;;;;;;;3.55;1.00;;;;;;;-140.72;0.00;51932.31;5015014;28;20034;-73
2022/08/13 08:23:32;;;;;;;1.90;0.95;;;;;;;-140.72;0.00;51907.97;5012031;28;20331;-75
2022/08/13 08:26:00;;;;;;;3.85;1.15;;;;;;;-140.72;0.00;51950.56;5011624;28;20034;-77
2022/08/13 08:28:28;;;;;;;2.05;0.82;;;;;;;-140.72;0.00;51883.63;5009773;28;20441;-75
2022/08/13 08:30:53;;;;;;;1.63;0.95;;;;;;;-140.72;0.00;51901.88;5007420;28;20023;-76
2022/08/13 08:33:26;;;;;;;1.33;0.80;;;;;;;-140.72;0.00;51883.63;5005262;28;20116;-76
2022/08/13 08:35:54;;;;;;;1.48;0.70;;;;;;;-140.72;0.00;51887.66;5004308;28;20034;-79
2022/08/13 08:43:51;;;;;;;1.23;0.65;;;;;;;-140.72;0.00;51828.84;5031600;28;20049;-73
2022/08/13 08:46:17;;;;;;;1.25;0.88;;;;;;;-140.72;0.00;51834.91;5030288;28;20049;-74
2022/08/13 08:48:42;;;;;;;2.13;1.17;;;;;;;-140.72;0.00;51755.81;5032430;28;20025;-73
2022/08/13 08:51:09;;;;;;;1.48;0.90;;;;;;;-140.72;0.00;51838.97;5032586;28;20082;-75
2022/08/13 08:53:34;;;;;;;2.05;0.80;;;;;;;-140.72;0.00;51804.50;5030834;28;20037;-74
2022/08/13 08:56:04;;;;;;;1.20;0.73;;;;;;;-140.72;0.00;51804.50;5031989;28;20030;-74
2022/08/13 08:58:34;;;;;;;1.08;0.63;;;;;;;-140.72;0.00;51767.97;5033074;28;20014;-73
2022/08/13 09:01:00;;;;;;;;;;;;;;;-140.72;0.00;51727.41;5029017;28;20040;-73
2022/08/13 09:03:27;;;;;;;1.20;0.70;;;;;;;-140.72;0.00;51776.09;5021308;28;19913;-75
2022/08/13 09:05:52;;;;;;;1.98;0.68;;;;;;;-140.72;0.00;51725.38;5023801;28;20026;-72
2022/08/13 09:08:19;;;;;;;1.60;0.80;;;;;;;-140.72;0.00;51733.47;5026428;28;20045;-72
2022/08/13 09:10:52;;;;;;;6.82;0.77;;;;;;;-140.72;0.00;51696.97;5026701;28;20449;-71
2022/08/13 09:13:21;;;;;;;1.35;0.68;;;;;;;-140.72;0.00;51690.88;5025680;28;20013;-71
2022/08/13 09:15:50;;;;;;;0.63;0.32;;;;;;;-140.72;0.00;51652.34;5019467;28;20103;-70
2022/08/13 09:18:18;;;;;;;1.27;0.65;;;;;;;-140.72;0.00;51668.56;5029106;28;20049;-70
2022/08/13 09:20:44;;;;;;;2.40;0.70;;;;;;;-140.72;0.00;51656.38;5030664;28;20113;-74
2022/08/13 09:23:14;;;;;;;2.05;0.70;;;;;;;-140.72;0.00;51613.78;5020401;28;20428;-72
2022/08/13 09:25:43;;;;;;;0.65;0.40;;;;;;;-140.72;0.00;51611.75;5022225;28;20026;-70
2022/08/13 09:28:09;;;;;;;1.40;0.50;;;;;;;-140.72;0.00;51595.53;5024086;28;20053;-71
2022/08/13 09:30:36;;;;;;;3.80;0.65;;;;;;;-140.72;0.00;51581.31;5030563;28;20014;-70
2022/08/13 09:33:04;;;;;;;0.80;0.50;;;;;;;-140.72;0.00;51565.09;5033311;28;20037;-75
2022/08/13 09:35:32;;;;;;;0.45;0.20;;;;;;;-140.72;0.00;51563.06;5029902;28;20034;-73
2022/08/13 09:37:59;;;;;;;0.73;0.30;;;;;;;-140.72;0.00;51526.56;5033068;28;20041;-74
2022/08/13 09:40:30;;;;;;;0.98;0.45;;;;;;;-140.72;0.00;51571.19;5037169;28;20038;-74
2022/08/13 09:43:01;;;;;;;1.05;0.40;;;;;;;-140.72;0.00;51514.38;5029236;28;20033;-74
2022/08/13 09:45:27;;;;;;;0.75;0.38;;;;;;;-140.72;0.00;51506.25;5025450;28;20040;-73
2022/08/13 09:47:54;;;;;;;0.73;0.40;;;;;;;-140.72;0.00;51526.56;5013386;28;20028;-75
2022/08/13 09:50:21;;;;;;;0.95;0.40;;;;;;;-140.72;0.00;51477.88;5037986;28;20038;-73
2022/08/13 09:52:48;;;;;;;1.20;0.20;;;;;;;-140.72;0.00;51449.47;5026380;28;20041;-73
2022/08/13 09:55:13;;;;;;;0.75;0.30;;;;;;;-140.72;0.00;51485.97;5029241;28;20036;-75
2022/08/13 09:58:10;;;;;;;0.45;0.28;;;;;;;-140.72;0.00;51435.25;5028187;28;20037;-75
2022/08/13 10:00:36;;;;;;;0.55;0.20;;;;;;;-140.72;0.00;51433.22;5007104;28;20034;-76
2022/08/13 10:03:04;;;;;;;0.93;0.28;;;;;;;-140.72;0.00;51388.59;5022037;28;20497;-76
2022/08/13 10:05:37;;;;;;;0.70;0.40;;;;;;;-140.72;0.00;51425.13;5025469;28;20032;-74
2022/08/13 10:08:05;;;;;;;0.50;0.28;;;;;;;-140.72;0.00;51384.53;5018894;28;20033;-72
2022/08/13 10:10:31;;;;;;;;;;;;;;;-140.72;0.00;51329.78;5010133;28;20084;-75
2022/08/13 10:12:58;;;;;;;0.43;0.28;;;;;;;-140.72;0.00;51364.25;5018933;28;19913;-75
2022/08/13 10:15:24;;;;;;;2.23;0.47;;;;;;;-140.72;0.00;51343.97;5014522;28;20034;-77
2022/08/13 10:17:57;;;;;;;1.13;0.52;;;;;;;-140.72;0.00;51327.75;5020994;28;20030;-72
2022/08/13 10:20:48;;;;;;;0.90;0.35;;;;;;;-140.72;0.00;51327.75;5020715;28;20029;-73
2022/08/13 10:23:15;;;;;;;0.88;0.40;;;;;;;-140.72;0.00;51333.84;5020275;28;20104;-69
2022/08/13 10:25:42;;;;;;;3.72;0.63;;;;;;;-140.72;0.00;51303.41;5024117;28;20065;-68
2022/08/13 10:28:18;;;;;;;0.82;0.43;;;;;;;-140.72;0.00;51295.28;5019475;28;20480;-68
2022/08/13 10:30:43;;;;;;;1.67;0.90;;;;;;;-140.72;0.00;51329.78;5029673;28;20409;-68
2022/08/13 10:33:11;;;;;;;1.10;0.70;;;;;;;-140.72;0.00;51315.56;5043790;28;20052;-69
2022/08/13 10:35:37;;;;;;;1.50;1.00;;;;;;;-140.72;0.00;51297.31;5024647;28;20026;-66
2022/08/13 10:38:02;;;;;;;1.90;0.88;;;;;;;-140.72;0.00;51297.31;5025334;28;20033;-69
2022/08/13 10:40:29;;;;;;;1.75;0.85;;;;;;;-140.72;0.00;51262.84;5025369;28;20025;-67
2022/08/13 10:42:54;;;;;;;2.00;0.60;;;;;;;-140.72;0.00;51244.56;5025274;28;20018;-67
2022/08/13 10:45:20;;;;;;;1.53;0.70;;;;;;;-140.72;0.00;51270.94;5028367;28;20044;-68
2022/08/13 10:47:53;;;;;;;1.60;0.60;;;;;;;-140.72;0.00;51291.22;5027050;28;20284;-68
2022/08/13 10:50:26;;;;;;;1.60;0.93;;;;;;;-140.72;0.00;51216.19;5028311;28;20030;-68
2022/08/13 10:52:52;;;;;;;1.45;0.70;;;;;;;-140.72;0.00;51210.09;5028842;28;20021;-68
2022/08/13 10:55:17;;;;;;;2.97;0.60;;;;;;;-140.72;0.00;51208.06;5026211;28;20086;-69
2022/08/13 10:57:45;;;;;;;1.17;0.45;;;;;;;-140.72;0.00;51169.53;5014043;28;20042;-69
2022/08/13 11:00:16;;;;;;;0.73;0.40;;;;;;;-140.72;0.00;51187.78;5030511;28;20048;-67
2022/08/13 11:02:43;;;;;;;0.75;0.40;;;;;;;-140.72;0.00;51133.00;5031558;28;20030;-68
2022/08/13 11:05:10;;;;;;;1.10;0.52;;;;;;;-140.72;0.00;51167.50;5025561;28;20450;-68
2022/08/13 11:07:37;;;;;;;1.17;0.30;;;;;;;-140.72;0.00;51161.41;5020390;28;20037;-67
2022/08/13 11:10:08;;;;;;;0.93;0.32;;;;;;;-140.72;0.00;51248.63;5026297;28;20033;-67
2022/08/13 11:12:34;;;;;;;0.95;0.35;;;;;;;-140.72;0.00;51151.25;5028459;28;20029;-69
2022/08/13 11:15:00;;;;;;;0.50;0.30;;;;;;;-140.72;0.00;51141.13;5029752;28;20025;-67
2022/08/13 11:17:25;;;;;;;0.63;0.20;;;;;;;-140.72;0.00;51092.44;5027672;28;20022;-69
2022/08/13 11:19:51;;;;;;;1.02;0.40;;;;;;;-140.72;0.00;51076.22;5025607;28;20030;-68
2022/08/13 11:22:18;;;;;;;0.45;0.20;;;;;;;-140.72;0.00;51112.72;5025094;28;20033;-69
2022/08/13 11:24:43;;;;;;;1.10;0.28;;;;;;;-140.72;0.00;51057.97;5026035;28;20030;-72
2022/08/13 11:27:09;;;;;;;0.30;0.20;;;;;;;-140.72;0.00;51059.97;5024845;28;20080;-69
2022/08/13 11:29:34;;;;;;;1.15;0.20;;;;;;;-140.72;0.00;51037.66;5022363;28;20037;-66
2022/08/13 11:31:59;;;;;;;0.53;0.30;;;;;;;-140.72;0.00;51021.44;5023131;28;20049;-67
2022/08/13 11:34:26;;;;;;;0.50;0.30;;;;;;;-140.72;0.00;51076.22;5023215;28;20057;-67
2022/08/13 11:36:52;;;;;;;1.87;0.40;;;;;;;-140.72;0.00;51039.69;5021210;28;20201;-67
2022/08/13 11:39:18;;;;;;;0.50;0.20;;;;;;;-140.72;0.00;51033.63;5024490;28;20042;-65
2022/08/13 11:41:43;;;;;;;0.50;0.22;;;;;;;-140.72;0.00;51049.84;5024432;28;20369;-66
2022/08/13 11:44:09;;;;;;;0.60;0.30;;;;;;;-140.72;0.00;51057.97;5025350;28;20025;-68
2022/08/13 11:46:34;;;;;;;0.17;0.10;;;;;;;-140.72;0.00;51001.16;5023778;28;20665;-66
2022/08/13 11:49:00;;;;;;;1.45;0.30;;;;;;;-140.72;0.00;50980.88;5023426;28;20462;-66